sensor_id;sensor_type;location;lat;lon;timestamp;temperature;humidity
5304;DHT22;2674;49.722;10.892;2022-07-21T00:01:16;23.10;99.90
5304;DHT22;2674;49.722;10.892;2022-07-21T00:03:42;23.10;99.90
5304;DHT22;2674;49.722;10.892;2022-07-21T00:06:08;23.10;99.90
5304;DHT22;2674;49.722;10.892;2022-07-21T00:08:34;23.10;99.90
5304;DHT22;2674;49.722;10.892;2022-07-21T00:11:00;23.10;99.90
5304;DHT22;2674;49.722;10.892;2022-07-21T00:13:26;23.10;99.90
5304;DHT22;2674;49.722;10.892;2022-07-21T00:15:53;23.10;99.90
5304;DHT22;2674;49.722;10.892;2022-07-21T00:18:19;23.00;99.90
5304;DHT22;2674;49.722;10.892;2022-07-21T00:20:46;23.00;99.90
5304;DHT22;2674;49.722;10.892;2022-07-21T00:23:12;23.00;99.90
5304;DHT22;2674;49.722;10.892;2022-07-21T00:25:38;22.90;99.90
5304;DHT22;2674;49.722;10.892;2022-07-21T00:28:04;22.90;99.90
5304;DHT22;2674;49.722;10.892;2022-07-21T00:30:30;22.90;99.90
5304;DHT22;2674;49.722;10.892;2022-07-21T00:32:56;22.80;99.90
5304;DHT22;2674;49.722;10.892;2022-07-21T00:35:22;22.80;99.90
5304;DHT22;2674;49.722;10.892;2022-07-21T00:37:48;22.80;99.90
5304;DHT22;2674;49.722;10.892;2022-07-21T00:40:14;22.70;99.90
5304;DHT22;2674;49.722;10.892;2022-07-21T00:42:42;22.70;99.90
5304;DHT22;2674;49.722;10.892;2022-07-21T00:45:09;22.60;99.90
5304;DHT22;2674;49.722;10.892;2022-07-21T00:47:36;22.60;99.90
5304;DHT22;2674;49.722;10.892;2022-07-21T00:50:06;22.60;99.90
5304;DHT22;2674;49.722;10.892;2022-07-21T00:52:32;22.60;99.90
5304;DHT22;2674;49.722;10.892;2022-07-21T00:54:58;22.50;99.90
5304;DHT22;2674;49.722;10.892;2022-07-21T00:57:25;22.50;99.90
5304;DHT22;2674;49.722;10.892;2022-07-21T00:59:51;22.50;99.90
5304;DHT22;2674;49.722;10.892;2022-07-21T01:02:17;22.50;99.90
5304;DHT22;2674;49.722;10.892;2022-07-21T01:04:43;22.50;99.90
5304;DHT22;2674;49.722;10.892;2022-07-21T01:07:09;22.40;99.90
5304;DHT22;2674;49.722;10.892;2022-07-21T01:09:35;22.40;99.90
5304;DHT22;2674;49.722;10.892;2022-07-21T01:12:02;22.40;99.90
5304;DHT22;2674;49.722;10.892;2022-07-21T01:14:28;22.30;99.90
5304;DHT22;2674;49.722;10.892;2022-07-21T01:16:54;22.20;99.90
5304;DHT22;2674;49.722;10.892;2022-07-21T01:19:20;22.20;99.90
5304;DHT22;2674;49.722;10.892;2022-07-21T01:21:47;22.20;99.90
5304;DHT22;2674;49.722;10.892;2022-07-21T01:24:14;22.10;99.90
5304;DHT22;2674;49.722;10.892;2022-07-21T01:26:46;22.10;99.90
5304;DHT22;2674;49.722;10.892;2022-07-21T01:29:13;22.00;99.90
5304;DHT22;2674;49.722;10.892;2022-07-21T01:31:40;21.90;99.90
5304;DHT22;2674;49.722;10.892;2022-07-21T01:34:08;21.80;99.90
5304;DHT22;2674;49.722;10.892;2022-07-21T01:36:34;21.60;99.90
5304;DHT22;2674;49.722;10.892;2022-07-21T01:39:00;21.50;99.90
5304;DHT22;2674;49.722;10.892;2022-07-21T01:41:45;21.30;99.90
5304;DHT22;2674;49.722;10.892;2022-07-21T01:44:12;21.10;99.90
5304;DHT22;2674;49.722;10.892;2022-07-21T01:46:44;20.90;99.90
5304;DHT22;2674;49.722;10.892;2022-07-21T01:49:12;20.80;99.90
5304;DHT22;2674;49.722;10.892;2022-07-21T01:51:38;20.80;99.90
5304;DHT22;2674;49.722;10.892;2022-07-21T01:54:05;20.80;99.90
5304;DHT22;2674;49.722;10.892;2022-07-21T01:56:33;20.70;99.90
5304;DHT22;2674;49.722;10.892;2022-07-21T01:58:59;20.60;99.90
5304;DHT22;2674;49.722;10.892;2022-07-21T02:01:27;20.70;99.90
5304;DHT22;2674;49.722;10.892;2022-07-21T02:03:55;20.60;99.90
5304;DHT22;2674;49.722;10.892;2022-07-21T02:06:22;20.60;99.90
5304;DHT22;2674;49.722;10.892;2022-07-21T02:08:48;20.60;99.90
5304;DHT22;2674;49.722;10.892;2022-07-21T02:11:15;20.60;99.90
5304;DHT22;2674;49.722;10.892;2022-07-21T02:13:41;20.60;99.90
5304;DHT22;2674;49.722;10.892;2022-07-21T02:16:08;20.60;99.90
5304;DHT22;2674;49.722;10.892;2022-07-21T02:18:33;20.60;99.90
5304;DHT22;2674;49.722;10.892;2022-07-21T02:21:00;20.50;99.90
5304;DHT22;2674;49.722;10.892;2022-07-21T02:23:26;20.50;99.90
5304;DHT22;2674;49.722;10.892;2022-07-21T02:25:53;20.50;99.90
5304;DHT22;2674;49.722;10.892;2022-07-21T02:28:20;20.40;99.90
5304;DHT22;2674;49.722;10.892;2022-07-21T02:30:46;20.40;99.90
5304;DHT22;2674;49.722;10.892;2022-07-21T02:33:13;20.30;99.90
5304;DHT22;2674;49.722;10.892;2022-07-21T02:35:39;20.30;99.90
5304;DHT22;2674;49.722;10.892;2022-07-21T02:38:06;20.30;99.90
5304;DHT22;2674;49.722;10.892;2022-07-21T02:40:32;20.30;99.90
5304;DHT22;2674;49.722;10.892;2022-07-21T02:42:58;20.30;99.90
5304;DHT22;2674;49.722;10.892;2022-07-21T02:45:24;20.30;99.90
5304;DHT22;2674;49.722;10.892;2022-07-21T02:48:01;20.20;99.90
5304;DHT22;2674;49.722;10.892;2022-07-21T02:50:30;20.20;99.90
5304;DHT22;2674;49.722;10.892;2022-07-21T02:52:59;20.20;99.90
5304;DHT22;2674;49.722;10.892;2022-07-21T02:55:26;20.10;99.90
5304;DHT22;2674;49.722;10.892;2022-07-21T02:58:17;20.10;99.90
5304;DHT22;2674;49.722;10.892;2022-07-21T03:00:45;20.10;99.90
5304;DHT22;2674;49.722;10.892;2022-07-21T03:03:12;20.00;99.90
5304;DHT22;2674;49.722;10.892;2022-07-21T03:05:38;20.00;99.90
5304;DHT22;2674;49.722;10.892;2022-07-21T03:08:05;20.00;99.90
5304;DHT22;2674;49.722;10.892;2022-07-21T03:10:31;20.00;99.90
5304;DHT22;2674;49.722;10.892;2022-07-21T03:12:57;20.00;99.90
5304;DHT22;2674;49.722;10.892;2022-07-21T03:15:23;19.90;99.90
5304;DHT22;2674;49.722;10.892;2022-07-21T03:17:49;19.90;99.90
5304;DHT22;2674;49.722;10.892;2022-07-21T03:20:15;19.90;99.90
5304;DHT22;2674;49.722;10.892;2022-07-21T03:22:41;19.80;99.90
5304;DHT22;2674;49.722;10.892;2022-07-21T03:25:07;19.80;99.90
5304;DHT22;2674;49.722;10.892;2022-07-21T03:27:33;19.90;99.90
5304;DHT22;2674;49.722;10.892;2022-07-21T03:30:06;19.90;99.90
5304;DHT22;2674;49.722;10.892;2022-07-21T03:32:34;19.90;99.90
5304;DHT22;2674;49.722;10.892;2022-07-21T03:35:00;19.90;99.90
5304;DHT22;2674;49.722;10.892;2022-07-21T03:37:26;19.90;99.90
5304;DHT22;2674;49.722;10.892;2022-07-21T03:39:52;19.90;99.90
5304;DHT22;2674;49.722;10.892;2022-07-21T03:42:18;20.00;99.90
5304;DHT22;2674;49.722;10.892;2022-07-21T03:44:44;20.00;99.90
5304;DHT22;2674;49.722;10.892;2022-07-21T03:47:10;20.00;99.90
5304;DHT22;2674;49.722;10.892;2022-07-21T03:49:36;20.00;99.90
5304;DHT22;2674;49.722;10.892;2022-07-21T03:52:02;20.00;99.90
5304;DHT22;2674;49.722;10.892;2022-07-21T03:54:28;20.00;99.90
5304;DHT22;2674;49.722;10.892;2022-07-21T03:56:54;20.00;99.90
5304;DHT22;2674;49.722;10.892;2022-07-21T03:59:19;20.00;99.90
5304;DHT22;2674;49.722;10.892;2022-07-21T04:01:45;20.00;99.90
5304;DHT22;2674;49.722;10.892;2022-07-21T04:04:11;20.00;99.90
5304;DHT22;2674;49.722;10.892;2022-07-21T04:06:37;20.00;99.90
5304;DHT22;2674;49.722;10.892;2022-07-21T04:09:03;20.00;99.90
5304;DHT22;2674;49.722;10.892;2022-07-21T04:11:29;20.00;99.90
5304;DHT22;2674;49.722;10.892;2022-07-21T04:13:58;20.00;99.90
5304;DHT22;2674;49.722;10.892;2022-07-21T04:16:24;20.00;99.90
5304;DHT22;2674;49.722;10.892;2022-07-21T04:18:50;20.00;99.90
5304;DHT22;2674;49.722;10.892;2022-07-21T04:21:16;20.00;99.90
5304;DHT22;2674;49.722;10.892;2022-07-21T04:23:42;20.00;99.90
5304;DHT22;2674;49.722;10.892;2022-07-21T04:26:08;20.00;99.90
5304;DHT22;2674;49.722;10.892;2022-07-21T04:28:34;20.00;99.90
5304;DHT22;2674;49.722;10.892;2022-07-21T04:30:59;20.00;99.90
5304;DHT22;2674;49.722;10.892;2022-07-21T04:33:25;20.00;99.90
5304;DHT22;2674;49.722;10.892;2022-07-21T04:35:51;20.10;99.90
5304;DHT22;2674;49.722;10.892;2022-07-21T04:38:17;20.00;99.90
5304;DHT22;2674;49.722;10.892;2022-07-21T04:40:44;20.10;99.90
5304;DHT22;2674;49.722;10.892;2022-07-21T04:43:09;20.10;99.90
5304;DHT22;2674;49.722;10.892;2022-07-21T04:45:35;20.10;99.90
5304;DHT22;2674;49.722;10.892;2022-07-21T04:48:02;20.10;99.90
5304;DHT22;2674;49.722;10.892;2022-07-21T04:50:28;20.10;99.90
5304;DHT22;2674;49.722;10.892;2022-07-21T04:52:55;20.00;99.90
5304;DHT22;2674;49.722;10.892;2022-07-21T04:55:21;20.00;99.90
5304;DHT22;2674;49.722;10.892;2022-07-21T04:57:49;20.00;99.90
5304;DHT22;2674;49.722;10.892;2022-07-21T05:00:18;19.90;99.90
5304;DHT22;2674;49.722;10.892;2022-07-21T05:02:45;20.00;99.90
5304;DHT22;2674;49.722;10.892;2022-07-21T05:05:11;19.90;99.90
5304;DHT22;2674;49.722;10.892;2022-07-21T05:07:38;20.00;99.90
5304;DHT22;2674;49.722;10.892;2022-07-21T05:10:05;20.00;99.90
5304;DHT22;2674;49.722;10.892;2022-07-21T05:12:32;20.00;99.90
5304;DHT22;2674;49.722;10.892;2022-07-21T05:14:58;20.00;99.90
5304;DHT22;2674;49.722;10.892;2022-07-21T05:17:24;20.00;99.90
5304;DHT22;2674;49.722;10.892;2022-07-21T05:19:50;20.00;99.90
5304;DHT22;2674;49.722;10.892;2022-07-21T05:22:16;20.00;99.90
5304;DHT22;2674;49.722;10.892;2022-07-21T05:24:43;20.10;99.90
5304;DHT22;2674;49.722;10.892;2022-07-21T05:27:09;20.00;99.90
5304;DHT22;2674;49.722;10.892;2022-07-21T05:29:35;20.00;99.90
5304;DHT22;2674;49.722;10.892;2022-07-21T05:32:01;20.10;99.90
5304;DHT22;2674;49.722;10.892;2022-07-21T05:34:26;20.10;99.90
5304;DHT22;2674;49.722;10.892;2022-07-21T05:36:52;20.10;99.90
5304;DHT22;2674;49.722;10.892;2022-07-21T05:39:19;20.10;99.90
5304;DHT22;2674;49.722;10.892;2022-07-21T05:41:45;20.10;99.90
5304;DHT22;2674;49.722;10.892;2022-07-21T05:44:11;20.10;99.90
5304;DHT22;2674;49.722;10.892;2022-07-21T05:46:37;20.10;99.90
5304;DHT22;2674;49.722;10.892;2022-07-21T05:49:03;20.10;99.90
5304;DHT22;2674;49.722;10.892;2022-07-21T05:51:29;20.10;99.90
5304;DHT22;2674;49.722;10.892;2022-07-21T05:53:55;20.20;99.90
5304;DHT22;2674;49.722;10.892;2022-07-21T05:56:21;20.20;99.90
5304;DHT22;2674;49.722;10.892;2022-07-21T05:58:46;20.20;99.90
5304;DHT22;2674;49.722;10.892;2022-07-21T06:01:12;20.20;99.90
5304;DHT22;2674;49.722;10.892;2022-07-21T06:03:40;20.30;99.90
5304;DHT22;2674;49.722;10.892;2022-07-21T06:06:07;20.30;99.90
5304;DHT22;2674;49.722;10.892;2022-07-21T06:08:33;20.40;99.90
5304;DHT22;2674;49.722;10.892;2022-07-21T06:10:59;20.40;99.90
5304;DHT22;2674;49.722;10.892;2022-07-21T06:13:25;20.50;99.90
5304;DHT22;2674;49.722;10.892;2022-07-21T06:15:51;20.50;99.90
5304;DHT22;2674;49.722;10.892;2022-07-21T06:18:17;20.60;99.90
5304;DHT22;2674;49.722;10.892;2022-07-21T06:20:43;20.70;99.90
5304;DHT22;2674;49.722;10.892;2022-07-21T06:23:09;20.70;99.90
5304;DHT22;2674;49.722;10.892;2022-07-21T06:25:35;20.80;99.90
5304;DHT22;2674;49.722;10.892;2022-07-21T06:28:01;20.90;99.90
5304;DHT22;2674;49.722;10.892;2022-07-21T06:30:27;21.00;99.90
5304;DHT22;2674;49.722;10.892;2022-07-21T06:32:53;21.00;99.90
5304;DHT22;2674;49.722;10.892;2022-07-21T06:35:18;21.00;99.90
5304;DHT22;2674;49.722;10.892;2022-07-21T06:37:45;21.00;99.90
5304;DHT22;2674;49.722;10.892;2022-07-21T06:40:12;21.00;99.90
5304;DHT22;2674;49.722;10.892;2022-07-21T06:42:38;21.00;99.90
5304;DHT22;2674;49.722;10.892;2022-07-21T06:45:04;21.00;99.90
5304;DHT22;2674;49.722;10.892;2022-07-21T06:47:31;21.00;99.90
5304;DHT22;2674;49.722;10.892;2022-07-21T06:49:56;21.00;99.90
5304;DHT22;2674;49.722;10.892;2022-07-21T06:52:30;21.00;99.90
5304;DHT22;2674;49.722;10.892;2022-07-21T06:54:56;21.00;99.90
5304;DHT22;2674;49.722;10.892;2022-07-21T06:57:22;21.10;99.90
5304;DHT22;2674;49.722;10.892;2022-07-21T06:59:48;21.10;99.90
5304;DHT22;2674;49.722;10.892;2022-07-21T07:02:14;21.20;99.90
5304;DHT22;2674;49.722;10.892;2022-07-21T07:04:40;21.30;99.90
5304;DHT22;2674;49.722;10.892;2022-07-21T07:07:06;21.30;99.90
5304;DHT22;2674;49.722;10.892;2022-07-21T07:09:32;21.30;99.90
5304;DHT22;2674;49.722;10.892;2022-07-21T07:11:58;21.40;99.90
5304;DHT22;2674;49.722;10.892;2022-07-21T07:14:33;21.40;99.90
5304;DHT22;2674;49.722;10.892;2022-07-21T07:17:00;21.30;99.90
5304;DHT22;2674;49.722;10.892;2022-07-21T07:19:28;21.30;99.90
5304;DHT22;2674;49.722;10.892;2022-07-21T07:21:54;21.20;99.90
5304;DHT22;2674;49.722;10.892;2022-07-21T07:24:20;21.20;99.90
5304;DHT22;2674;49.722;10.892;2022-07-21T07:26:46;21.20;99.90
5304;DHT22;2674;49.722;10.892;2022-07-21T07:29:13;21.30;99.90
5304;DHT22;2674;49.722;10.892;2022-07-21T07:31:39;21.50;99.90
5304;DHT22;2674;49.722;10.892;2022-07-21T07:34:05;21.60;99.90
5304;DHT22;2674;49.722;10.892;2022-07-21T07:36:31;21.80;99.90
5304;DHT22;2674;49.722;10.892;2022-07-21T07:38:57;21.90;99.90
5304;DHT22;2674;49.722;10.892;2022-07-21T07:41:25;22.10;99.90
5304;DHT22;2674;49.722;10.892;2022-07-21T07:43:52;22.20;99.90
5304;DHT22;2674;49.722;10.892;2022-07-21T07:46:19;22.40;99.90
5304;DHT22;2674;49.722;10.892;2022-07-21T07:48:45;22.60;99.90
5304;DHT22;2674;49.722;10.892;2022-07-21T07:51:14;22.70;99.90
5304;DHT22;2674;49.722;10.892;2022-07-21T07:53:41;22.90;99.90
5304;DHT22;2674;49.722;10.892;2022-07-21T07:56:07;23.00;99.90
5304;DHT22;2674;49.722;10.892;2022-07-21T07:58:33;23.00;99.90
5304;DHT22;2674;49.722;10.892;2022-07-21T08:01:00;23.00;99.90
5304;DHT22;2674;49.722;10.892;2022-07-21T08:03:26;23.00;99.90
5304;DHT22;2674;49.722;10.892;2022-07-21T08:05:55;23.00;99.90
5304;DHT22;2674;49.722;10.892;2022-07-21T08:08:21;23.00;99.90
5304;DHT22;2674;49.722;10.892;2022-07-21T08:10:48;23.10;99.90
5304;DHT22;2674;49.722;10.892;2022-07-21T08:13:15;23.10;99.90
5304;DHT22;2674;49.722;10.892;2022-07-21T08:15:43;23.10;99.90
5304;DHT22;2674;49.722;10.892;2022-07-21T08:18:09;23.10;99.90
5304;DHT22;2674;49.722;10.892;2022-07-21T08:20:36;23.10;99.90
5304;DHT22;2674;49.722;10.892;2022-07-21T08:23:02;23.20;99.90
5304;DHT22;2674;49.722;10.892;2022-07-21T08:25:28;23.30;99.90
5304;DHT22;2674;49.722;10.892;2022-07-21T08:27:54;23.40;99.90
5304;DHT22;2674;49.722;10.892;2022-07-21T08:30:20;23.40;99.90
5304;DHT22;2674;49.722;10.892;2022-07-21T08:32:46;23.50;99.90
5304;DHT22;2674;49.722;10.892;2022-07-21T08:35:11;23.60;99.90
5304;DHT22;2674;49.722;10.892;2022-07-21T08:37:39;23.50;99.90
5304;DHT22;2674;49.722;10.892;2022-07-21T08:40:06;23.50;99.90
5304;DHT22;2674;49.722;10.892;2022-07-21T08:42:33;23.50;99.90
5304;DHT22;2674;49.722;10.892;2022-07-21T08:44:59;23.60;99.90
5304;DHT22;2674;49.722;10.892;2022-07-21T08:47:26;23.80;99.90
5304;DHT22;2674;49.722;10.892;2022-07-21T08:49:53;24.10;99.90
5304;DHT22;2674;49.722;10.892;2022-07-21T08:52:19;24.20;99.90
5304;DHT22;2674;49.722;10.892;2022-07-21T08:54:45;24.30;99.90
5304;DHT22;2674;49.722;10.892;2022-07-21T08:57:11;24.50;99.90
5304;DHT22;2674;49.722;10.892;2022-07-21T08:59:37;24.40;99.90
5304;DHT22;2674;49.722;10.892;2022-07-21T09:02:03;24.40;99.90
5304;DHT22;2674;49.722;10.892;2022-07-21T09:04:34;24.40;99.90
5304;DHT22;2674;49.722;10.892;2022-07-21T09:07:05;24.40;99.90
5304;DHT22;2674;49.722;10.892;2022-07-21T09:09:33;24.50;99.90
5304;DHT22;2674;49.722;10.892;2022-07-21T09:12:01;24.60;99.90
5304;DHT22;2674;49.722;10.892;2022-07-21T09:14:31;24.70;99.90
5304;DHT22;2674;49.722;10.892;2022-07-21T09:16:59;24.80;99.90
5304;DHT22;2674;49.722;10.892;2022-07-21T09:19:32;25.00;99.90
5304;DHT22;2674;49.722;10.892;2022-07-21T09:22:04;25.20;99.90
5304;DHT22;2674;49.722;10.892;2022-07-21T09:24:33;25.20;99.90
5304;DHT22;2674;49.722;10.892;2022-07-21T09:29:58;25.20;99.90
5304;DHT22;2674;49.722;10.892;2022-07-21T09:35:03;25.50;99.90
5304;DHT22;2674;49.722;10.892;2022-07-21T09:37:30;25.70;99.90
5304;DHT22;2674;49.722;10.892;2022-07-21T09:40:02;26.00;99.90
5304;DHT22;2674;49.722;10.892;2022-07-21T09:42:37;26.20;99.90
5304;DHT22;2674;49.722;10.892;2022-07-21T09:45:06;26.20;99.90
5304;DHT22;2674;49.722;10.892;2022-07-21T09:47:33;26.40;99.90
5304;DHT22;2674;49.722;10.892;2022-07-21T09:50:00;26.50;99.50
5304;DHT22;2674;49.722;10.892;2022-07-21T09:52:45;26.50;99.90
5304;DHT22;2674;49.722;10.892;2022-07-21T09:55:15;26.60;99.10
5304;DHT22;2674;49.722;10.892;2022-07-21T09:57:43;26.80;97.90
5304;DHT22;2674;49.722;10.892;2022-07-21T10:00:12;26.90;96.80
5304;DHT22;2674;49.722;10.892;2022-07-21T10:02:39;26.90;95.80
5304;DHT22;2674;49.722;10.892;2022-07-21T10:05:11;27.00;96.50
5304;DHT22;2674;49.722;10.892;2022-07-21T10:07:43;27.10;95.30
5304;DHT22;2674;49.722;10.892;2022-07-21T10:10:10;27.20;94.40
5304;DHT22;2674;49.722;10.892;2022-07-21T10:12:38;27.30;94.50
5304;DHT22;2674;49.722;10.892;2022-07-21T10:15:04;27.10;94.20
5304;DHT22;2674;49.722;10.892;2022-07-21T10:17:30;27.30;94.70
5304;DHT22;2674;49.722;10.892;2022-07-21T10:20:16;27.40;93.90
5304;DHT22;2674;49.722;10.892;2022-07-21T10:23:22;27.50;94.50
5304;DHT22;2674;49.722;10.892;2022-07-21T10:25:54;27.50;92.40
5304;DHT22;2674;49.722;10.892;2022-07-21T10:28:21;27.90;92.60
5304;DHT22;2674;49.722;10.892;2022-07-21T10:30:56;28.00;92.00
5304;DHT22;2674;49.722;10.892;2022-07-21T10:39:20;28.30;89.80
5304;DHT22;2674;49.722;10.892;2022-07-21T10:50:02;28.50;85.10
5304;DHT22;2674;49.722;10.892;2022-07-21T10:57:42;28.30;84.50
5304;DHT22;2674;49.722;10.892;2022-07-21T11:00:28;28.30;85.80
5304;DHT22;2674;49.722;10.892;2022-07-21T11:03:00;28.00;86.00
5304;DHT22;2674;49.722;10.892;2022-07-21T11:05:30;27.90;87.40
5304;DHT22;2674;49.722;10.892;2022-07-21T11:10:44;27.80;88.80
5304;DHT22;2674;49.722;10.892;2022-07-21T11:13:10;27.70;89.60
5304;DHT22;2674;49.722;10.892;2022-07-21T11:18:19;27.50;87.30
5304;DHT22;2674;49.722;10.892;2022-07-21T11:21:09;27.40;86.70
5304;DHT22;2674;49.722;10.892;2022-07-21T11:23:42;27.40;88.70
5304;DHT22;2674;49.722;10.892;2022-07-21T11:26:10;27.70;86.10
5304;DHT22;2674;49.722;10.892;2022-07-21T11:28:37;28.10;87.90
5304;DHT22;2674;49.722;10.892;2022-07-21T11:31:17;28.40;83.00
5304;DHT22;2674;49.722;10.892;2022-07-21T11:33:47;28.40;81.10
5304;DHT22;2674;49.722;10.892;2022-07-21T11:36:29;28.40;81.60
5304;DHT22;2674;49.722;10.892;2022-07-21T11:39:20;28.40;80.50
5304;DHT22;2674;49.722;10.892;2022-07-21T11:41:45;28.40;80.40
5304;DHT22;2674;49.722;10.892;2022-07-21T11:44:11;28.50;80.70
5304;DHT22;2674;49.722;10.892;2022-07-21T11:46:50;28.60;79.70
5304;DHT22;2674;49.722;10.892;2022-07-21T11:49:16;28.60;79.10
5304;DHT22;2674;49.722;10.892;2022-07-21T11:56:50;28.80;75.10
5304;DHT22;2674;49.722;10.892;2022-07-21T11:59:16;28.90;74.00
5304;DHT22;2674;49.722;10.892;2022-07-21T12:02:01;29.00;73.60
5304;DHT22;2674;49.722;10.892;2022-07-21T12:06:58;29.20;73.10
5304;DHT22;2674;49.722;10.892;2022-07-21T12:09:24;29.20;73.50
5304;DHT22;2674;49.722;10.892;2022-07-21T12:11:50;29.10;74.20
5304;DHT22;2674;49.722;10.892;2022-07-21T12:14:16;29.10;73.40
5304;DHT22;2674;49.722;10.892;2022-07-21T12:16:53;29.10;72.20
5304;DHT22;2674;49.722;10.892;2022-07-21T12:19:20;29.20;72.40
5304;DHT22;2674;49.722;10.892;2022-07-21T12:21:51;29.30;71.70
5304;DHT22;2674;49.722;10.892;2022-07-21T12:24:20;29.40;69.60
5304;DHT22;2674;49.722;10.892;2022-07-21T12:26:49;29.50;70.20
5304;DHT22;2674;49.722;10.892;2022-07-21T12:29:26;29.60;70.90
5304;DHT22;2674;49.722;10.892;2022-07-21T12:31:52;29.70;69.00
5304;DHT22;2674;49.722;10.892;2022-07-21T12:34:18;29.70;68.10
5304;DHT22;2674;49.722;10.892;2022-07-21T12:36:45;29.80;67.80
5304;DHT22;2674;49.722;10.892;2022-07-21T12:39:23;29.80;67.80
5304;DHT22;2674;49.722;10.892;2022-07-21T12:42:09;29.80;67.20
5304;DHT22;2674;49.722;10.892;2022-07-21T12:44:36;29.90;65.80
5304;DHT22;2674;49.722;10.892;2022-07-21T12:47:19;29.80;65.80
5304;DHT22;2674;49.722;10.892;2022-07-21T12:49:57;29.70;65.70
5304;DHT22;2674;49.722;10.892;2022-07-21T12:52:24;29.80;66.50
5304;DHT22;2674;49.722;10.892;2022-07-21T12:54:50;29.80;64.60
5304;DHT22;2674;49.722;10.892;2022-07-21T12:57:17;29.90;64.40
5304;DHT22;2674;49.722;10.892;2022-07-21T12:59:42;29.90;63.10
5304;DHT22;2674;49.722;10.892;2022-07-21T13:02:08;29.80;63.50
5304;DHT22;2674;49.722;10.892;2022-07-21T13:04:34;29.90;62.60
5304;DHT22;2674;49.722;10.892;2022-07-21T13:07:00;30.00;62.60
5304;DHT22;2674;49.722;10.892;2022-07-21T13:09:26;30.10;62.70
5304;DHT22;2674;49.722;10.892;2022-07-21T13:11:52;30.10;63.10
5304;DHT22;2674;49.722;10.892;2022-07-21T13:14:18;30.30;63.80
5304;DHT22;2674;49.722;10.892;2022-07-21T13:16:44;30.40;62.90
5304;DHT22;2674;49.722;10.892;2022-07-21T13:19:10;30.40;62.10
5304;DHT22;2674;49.722;10.892;2022-07-21T13:21:36;30.40;61.60
5304;DHT22;2674;49.722;10.892;2022-07-21T13:24:02;30.40;62.50
5304;DHT22;2674;49.722;10.892;2022-07-21T13:26:27;30.50;59.90
5304;DHT22;2674;49.722;10.892;2022-07-21T13:28:54;30.40;59.90
5304;DHT22;2674;49.722;10.892;2022-07-21T13:31:20;30.50;58.70
5304;DHT22;2674;49.722;10.892;2022-07-21T13:33:46;30.70;58.60
5304;DHT22;2674;49.722;10.892;2022-07-21T13:36:13;30.70;57.90
5304;DHT22;2674;49.722;10.892;2022-07-21T13:38:39;30.50;57.60
5304;DHT22;2674;49.722;10.892;2022-07-21T13:41:05;30.60;57.70
5304;DHT22;2674;49.722;10.892;2022-07-21T13:43:32;30.60;57.80
5304;DHT22;2674;49.722;10.892;2022-07-21T13:45:58;30.60;58.10
5304;DHT22;2674;49.722;10.892;2022-07-21T13:48:23;30.70;57.00
5304;DHT22;2674;49.722;10.892;2022-07-21T13:50:49;30.90;56.60
5304;DHT22;2674;49.722;10.892;2022-07-21T13:53:15;30.80;54.90
5304;DHT22;2674;49.722;10.892;2022-07-21T13:55:41;30.80;55.20
5304;DHT22;2674;49.722;10.892;2022-07-21T13:58:07;30.80;56.70
5304;DHT22;2674;49.722;10.892;2022-07-21T14:00:34;30.70;56.60
5304;DHT22;2674;49.722;10.892;2022-07-21T14:03:01;30.70;56.80
5304;DHT22;2674;49.722;10.892;2022-07-21T14:05:27;30.60;55.30
5304;DHT22;2674;49.722;10.892;2022-07-21T14:07:52;30.50;55.90
5304;DHT22;2674;49.722;10.892;2022-07-21T14:10:18;30.40;55.40
5304;DHT22;2674;49.722;10.892;2022-07-21T14:12:44;30.30;57.40
5304;DHT22;2674;49.722;10.892;2022-07-21T14:15:11;30.40;56.50
5304;DHT22;2674;49.722;10.892;2022-07-21T14:17:37;30.40;56.50
5304;DHT22;2674;49.722;10.892;2022-07-21T14:20:03;30.50;55.90
5304;DHT22;2674;49.722;10.892;2022-07-21T14:22:29;30.60;55.90
5304;DHT22;2674;49.722;10.892;2022-07-21T14:24:55;30.60;54.80
5304;DHT22;2674;49.722;10.892;2022-07-21T14:27:39;30.70;51.40
5304;DHT22;2674;49.722;10.892;2022-07-21T14:30:06;30.80;52.30
5304;DHT22;2674;49.722;10.892;2022-07-21T14:32:32;30.90;50.40
5304;DHT22;2674;49.722;10.892;2022-07-21T14:34:58;31.00;49.50
5304;DHT22;2674;49.722;10.892;2022-07-21T14:37:24;31.00;49.40
5304;DHT22;2674;49.722;10.892;2022-07-21T14:39:50;30.80;49.00
5304;DHT22;2674;49.722;10.892;2022-07-21T14:42:16;30.60;49.00
5304;DHT22;2674;49.722;10.892;2022-07-21T14:44:43;30.50;50.10
5304;DHT22;2674;49.722;10.892;2022-07-21T14:47:11;30.60;50.00
5304;DHT22;2674;49.722;10.892;2022-07-21T14:49:37;30.60;49.50
5304;DHT22;2674;49.722;10.892;2022-07-21T14:52:04;30.70;49.30
5304;DHT22;2674;49.722;10.892;2022-07-21T14:54:30;30.80;48.10
5304;DHT22;2674;49.722;10.892;2022-07-21T14:56:56;30.60;49.00
5304;DHT22;2674;49.722;10.892;2022-07-21T14:59:22;30.40;49.60
5304;DHT22;2674;49.722;10.892;2022-07-21T15:01:48;30.20;48.90
5304;DHT22;2674;49.722;10.892;2022-07-21T15:04:13;30.00;49.00
5304;DHT22;2674;49.722;10.892;2022-07-21T15:06:39;29.80;49.60
5304;DHT22;2674;49.722;10.892;2022-07-21T15:09:05;29.60;51.60
5304;DHT22;2674;49.722;10.892;2022-07-21T15:11:32;29.40;51.40
5304;DHT22;2674;49.722;10.892;2022-07-21T15:13:58;29.20;51.80
5304;DHT22;2674;49.722;10.892;2022-07-21T15:16:23;29.40;52.40
5304;DHT22;2674;49.722;10.892;2022-07-21T15:18:49;29.50;52.20
5304;DHT22;2674;49.722;10.892;2022-07-21T15:21:15;29.60;51.50
5304;DHT22;2674;49.722;10.892;2022-07-21T15:23:41;29.70;51.90
5304;DHT22;2674;49.722;10.892;2022-07-21T15:26:07;29.60;51.90
5304;DHT22;2674;49.722;10.892;2022-07-21T15:28:33;29.40;51.80
5304;DHT22;2674;49.722;10.892;2022-07-21T15:30:59;29.10;52.00
5304;DHT22;2674;49.722;10.892;2022-07-21T15:33:25;28.90;52.80
5304;DHT22;2674;49.722;10.892;2022-07-21T15:35:51;29.10;53.20
5304;DHT22;2674;49.722;10.892;2022-07-21T15:38:23;29.30;53.10
5304;DHT22;2674;49.722;10.892;2022-07-21T15:40:49;29.50;52.70
5304;DHT22;2674;49.722;10.892;2022-07-21T15:43:16;29.80;51.40
5304;DHT22;2674;49.722;10.892;2022-07-21T15:45:43;30.00;50.50
5304;DHT22;2674;49.722;10.892;2022-07-21T15:48:09;30.20;50.50
5304;DHT22;2674;49.722;10.892;2022-07-21T15:50:35;30.40;50.00
5304;DHT22;2674;49.722;10.892;2022-07-21T15:53:02;30.40;50.40
5304;DHT22;2674;49.722;10.892;2022-07-21T15:55:28;30.50;50.20
5304;DHT22;2674;49.722;10.892;2022-07-21T15:57:54;30.60;49.90
5304;DHT22;2674;49.722;10.892;2022-07-21T16:00:20;30.70;49.60
5304;DHT22;2674;49.722;10.892;2022-07-21T16:02:46;30.60;49.40
5304;DHT22;2674;49.722;10.892;2022-07-21T16:05:18;30.60;49.50
5304;DHT22;2674;49.722;10.892;2022-07-21T16:07:45;30.70;49.50
5304;DHT22;2674;49.722;10.892;2022-07-21T16:10:12;30.70;49.20
5304;DHT22;2674;49.722;10.892;2022-07-21T16:12:39;30.70;49.30
5304;DHT22;2674;49.722;10.892;2022-07-21T16:15:06;30.80;49.10
5304;DHT22;2674;49.722;10.892;2022-07-21T16:17:32;30.70;49.70
5304;DHT22;2674;49.722;10.892;2022-07-21T16:19:58;30.80;49.00
5304;DHT22;2674;49.722;10.892;2022-07-21T16:22:25;30.80;48.90
5304;DHT22;2674;49.722;10.892;2022-07-21T16:24:50;30.90;49.30